This is the latest recevied weather packets stored in our database for station/object OE9GTV. If no packets are shown the sender has not sent any weather packets the latest 10 day(s).
| Time | Temp. | Humidity | Pressure | Rain* | Wind** | Luminosity | Snow |
|---|---|---|---|---|---|---|---|
| 1777605671 | 5° C | 76% | 1022.2 hPa | 0 mm | - | 0 W/m² | - |
| 1777605071 | 5° C | 76% | 1022.3 hPa | 0 mm | - | 0 W/m² | - |
| 1777604471 | 5° C | 76% | 1022.3 hPa | 0 mm | - | 0 W/m² | - |
| 1777603872 | 5° C | 75% | 1022.4 hPa | 0 mm | - | 0 W/m² | - |
| 1777603271 | 5.56° C | 75% | 1022.4 hPa | 0 mm | - | 0 W/m² | - |
| 1777602671 | 5.56° C | 75% | 1022.4 hPa | 0 mm | - | 0 W/m² | - |
| 1777587074 | 8.89° C | 59% | 1021.4 hPa | 0 mm | - | 0 W/m² | - |
| 1777586474 | 9.44° C | 59% | 1021.2 hPa | 0 mm | - | 0 W/m² | - |
| 1777585874 | 9.44° C | 57% | 1021 hPa | 0 mm | - | 0 W/m² | - |
| 1777584673 | 10° C | 55% | 1020.8 hPa | 0 mm | - | 0 W/m² | - |
| 1777584074 | 10.56° C | 55% | 1020.9 hPa | 0 mm | - | 0 W/m² | - |
| 1777582877 | 10.56° C | 53% | 1020.7 hPa | 0 mm | - | 0 W/m² | - |
| 1777580473 | 11.67° C | 48% | 1020.6 hPa | 0 mm | - | 0 W/m² | - |
| 1777579873 | 12.22° C | 47% | 1020.5 hPa | 0 mm | - | 0 W/m² | - |
| 1777578673 | 13.33° C | 45% | 1020.4 hPa | 0 mm | - | 0 W/m² | - |
| 1777578073 | 13.33° C | 43% | 1020.3 hPa | 0 mm | - | 0 W/m² | - |
| 1777577473 | 13.89° C | 41% | 1020.2 hPa | 0 mm | - | 0 W/m² | - |
| 1777576873 | 13.89° C | 41% | 1020.2 hPa | 0 mm | - | 0 W/m² | - |
| 1777576273 | 14.44° C | 39% | 1020.1 hPa | 0 mm | - | 0 W/m² | - |
| 1777575073 | 15° C | 39% | 1019.7 hPa | 0 mm | - | 0 W/m² | - |
| 1777573273 | 16.11° C | 38% | 1019.3 hPa | 0 mm | - | 0 W/m² | - |
| 1777570272 | 18.89° C | 33% | 1018.9 hPa | 0 mm | - | 0 W/m² | - |
| 1777569672 | 19.44° C | 33% | 1018.9 hPa | 0 mm | - | 0 W/m² | - |
| 1777569072 | 19.44° C | 33% | 1018.9 hPa | 0 mm | - | 0 W/m² | - |
| 1777567272 | 20° C | 31% | 1018.7 hPa | 0 mm | - | 0 W/m² | - |
* Rain latest hour (hover to see other rain measurements)
** Current wind speed in m/s (hover to see current wind gust speed)